createdAt,value
2017-07-24T00:00:20.628Z,3.42
2017-07-24T00:02:49.978Z,4.17
2017-07-24T00:05:16.827Z,3.17
2017-07-24T00:07:45.198Z,3.88
2017-07-24T00:12:44.043Z,3.83
2017-07-24T00:15:11.724Z,3.80
2017-07-24T00:17:43.860Z,3.75
2017-07-24T00:20:11.256Z,3.88
2017-07-24T00:25:15.550Z,3.62
2017-07-24T00:27:42.448Z,3.57
2017-07-24T00:30:09.965Z,4.17
2017-07-24T00:32:39.387Z,3.92
2017-07-24T00:35:06.278Z,4.15
2017-07-24T00:37:33.120Z,3.40
2017-07-24T00:42:48.366Z,3.28
2017-07-24T00:45:18.967Z,3.72
2017-07-24T00:47:49.936Z,3.88
2017-07-24T00:55:26.526Z,3.83
2017-07-24T00:57:54.168Z,3.38
2017-07-24T01:00:23.877Z,3.87
2017-07-24T01:02:55.760Z,3.98
2017-07-24T01:05:24.681Z,4.00
2017-07-24T01:07:55.583Z,3.60
2017-07-24T01:10:25.314Z,3.97
2017-07-24T01:12:52.440Z,4.27
2017-07-24T01:15:20.606Z,4.12
2017-07-24T01:17:50.007Z,4.10
2017-07-24T01:20:17.589Z,3.72
2017-07-24T01:22:46.014Z,3.72
2017-07-24T01:25:15.020Z,4.18
2017-07-24T01:27:45.111Z,3.77
2017-07-24T01:30:16.683Z,4.15
2017-07-24T01:32:47.379Z,3.43
2017-07-24T01:37:47.787Z,4.02
2017-07-24T01:40:20.764Z,4.22
2017-07-24T01:42:50.340Z,4.05
2017-07-24T01:45:18.373Z,3.53
2017-07-24T01:47:46.935Z,3.32
2017-07-24T01:50:15.025Z,3.58
2017-07-24T01:52:44.727Z,3.50
2017-07-24T01:55:12.777Z,4.10
2017-07-24T01:57:44.583Z,3.60
2017-07-24T02:02:46.998Z,3.52
2017-07-24T02:05:13.827Z,4.23
2017-07-24T02:07:41.810Z,4.05
2017-07-24T02:10:10.344Z,4.18
2017-07-24T02:12:49.002Z,4.02
2017-07-24T02:15:16.843Z,3.53
2017-07-24T02:17:43.669Z,3.67
2017-07-24T02:20:11.510Z,5.50
2017-07-24T02:22:48.681Z,3.53
2017-07-24T02:25:21.775Z,3.58
2017-07-24T02:27:48.832Z,3.52
2017-07-24T02:37:58.184Z,3.80
2017-07-24T02:40:26.132Z,3.85
2017-07-24T02:42:53.820Z,4.02
2017-07-24T02:45:26.075Z,3.63
2017-07-24T02:47:52.902Z,3.42
2017-07-24T02:52:58.064Z,4.37
2017-07-24T02:55:25.640Z,3.75
2017-07-24T02:57:54.360Z,4.17
2017-07-24T03:02:54.724Z,4.60
2017-07-24T03:05:23.349Z,3.98
2017-07-24T03:07:51.904Z,4.35
2017-07-24T03:10:18.730Z,4.37
2017-07-24T03:15:18.768Z,4.33
2017-07-24T03:17:49.020Z,4.70
2017-07-24T03:30:40.999Z,4.27
2017-07-24T03:35:42.268Z,4.82
2017-07-24T03:38:10.304Z,5.00
2017-07-24T03:40:42.246Z,4.87
2017-07-24T03:43:10.503Z,4.72
2017-07-24T03:45:41.035Z,5.07
2017-07-24T03:48:07.858Z,5.05
2017-07-24T03:50:35.057Z,5.35
2017-07-24T03:53:01.843Z,4.82
2017-07-24T03:55:28.640Z,5.43
2017-07-24T03:57:55.474Z,6.20
2017-07-24T04:00:22.677Z,6.03
2017-07-24T04:02:50.199Z,6.45
2017-07-24T04:05:16.990Z,6.02
2017-07-24T04:07:48.769Z,6.47
2017-07-24T04:10:21.015Z,6.10
2017-07-24T04:12:48.329Z,5.23
2017-07-24T04:15:15.825Z,5.08
2017-07-24T04:17:46.683Z,5.60
2017-07-24T04:20:15.903Z,5.83
2017-07-24T04:25:15.674Z,5.60
2017-07-24T04:27:42.485Z,5.45
2017-07-24T04:30:09.760Z,5.63
2017-07-24T04:32:36.566Z,6.75
2017-07-24T04:35:03.397Z,6.07
2017-07-24T04:37:30.521Z,4.93
2017-07-24T04:39:58.175Z,6.42
2017-07-24T04:42:25.218Z,5.68
2017-07-24T04:44:52.348Z,6.15
2017-07-24T04:47:19.503Z,5.63
2017-07-24T04:49:47.134Z,6.40
2017-07-24T04:52:14.263Z,6.12
2017-07-24T04:54:42.485Z,6.00
2017-07-24T04:57:10.200Z,5.42
2017-07-24T04:59:37.281Z,5.68
2017-07-24T05:02:04.100Z,5.92
2017-07-24T05:04:30.957Z,5.65
2017-07-24T05:09:35.695Z,5.30
2017-07-24T05:12:04.288Z,5.17
2017-07-24T05:14:35.837Z,7.17
2017-07-24T05:17:05.335Z,6.18
2017-07-24T05:19:32.777Z,6.12
2017-07-24T05:22:02.271Z,6.03
2017-07-24T05:24:29.351Z,6.72
2017-07-24T05:26:56.456Z,5.53
2017-07-24T05:29:23.521Z,6.17
2017-07-24T05:31:50.661Z,6.62
2017-07-24T05:34:17.426Z,5.78
2017-07-24T05:36:44.606Z,5.65
2017-07-24T05:39:11.908Z,5.30
2017-07-24T05:41:39.013Z,5.87
2017-07-24T05:44:06.200Z,5.27
2017-07-24T05:49:05.933Z,4.78
2017-07-24T05:51:32.755Z,5.42
2017-07-24T05:53:59.862Z,5.32
2017-07-24T05:56:27.049Z,5.30
2017-07-24T05:58:54.193Z,5.65
2017-07-24T06:01:21.297Z,6.35
2017-07-24T06:03:48.448Z,5.43
2017-07-24T06:06:15.481Z,6.48
2017-07-24T06:08:42.473Z,6.50
2017-07-24T06:11:09.515Z,6.42
2017-07-24T06:13:36.533Z,6.05
2017-07-24T06:16:03.683Z,8.02
2017-07-24T06:18:30.767Z,6.27
2017-07-24T06:20:58.273Z,6.48
2017-07-24T06:23:25.745Z,6.45
2017-07-24T06:25:52.592Z,6.47
2017-07-24T06:28:19.696Z,5.97
2017-07-24T06:30:46.672Z,6.08
2017-07-24T06:33:13.769Z,6.73
2017-07-24T06:35:41.276Z,8.43
2017-07-24T06:38:08.253Z,6.50
2017-07-24T06:40:35.405Z,6.72
2017-07-24T06:43:02.578Z,5.95
2017-07-24T06:45:29.333Z,6.47
2017-07-24T06:47:56.489Z,6.45
2017-07-24T06:50:23.276Z,6.72
2017-07-24T06:52:50.882Z,6.78
2017-07-24T06:55:18.078Z,7.17
2017-07-24T06:57:45.097Z,6.95
2017-07-24T07:00:12.136Z,8.33
2017-07-24T07:02:39.168Z,7.75
2017-07-24T07:05:06.287Z,6.40
2017-07-24T07:07:33.398Z,6.32
2017-07-24T07:10:00.494Z,7.35
2017-07-24T07:12:27.668Z,7.08
2017-07-24T07:14:54.747Z,6.53
2017-07-24T07:17:21.836Z,6.78
2017-07-24T07:19:48.898Z,6.85
2017-07-24T07:22:15.902Z,7.85
2017-07-24T07:24:42.996Z,7.43
2017-07-24T07:27:10.024Z,7.57
2017-07-24T07:29:37.180Z,8.87
2017-07-24T07:32:04.324Z,8.03
2017-07-24T07:34:31.351Z,9.77
2017-07-24T07:36:58.438Z,8.98
2017-07-24T07:39:25.628Z,8.43
2017-07-24T07:41:52.638Z,9.93
2017-07-24T07:44:20.353Z,9.58
2017-07-24T07:46:47.528Z,10.35
2017-07-24T07:49:14.861Z,10.63
2017-07-24T07:51:42.016Z,9.80
2017-07-24T07:54:09.536Z,10.02
2017-07-24T07:56:36.739Z,10.43
2017-07-24T07:59:03.829Z,9.97
2017-07-24T08:01:31.368Z,10.65
2017-07-24T08:03:58.511Z,10.58
2017-07-24T08:06:25.622Z,10.33
2017-07-24T08:08:52.749Z,9.70
2017-07-24T08:11:19.820Z,11.25
2017-07-24T08:13:47.284Z,11.95
2017-07-24T08:16:14.595Z,12.35
2017-07-24T08:18:41.959Z,11.15
2017-07-24T08:21:09.455Z,11.87
2017-07-24T08:23:36.609Z,11.15
2017-07-24T08:26:03.538Z,10.85
2017-07-24T08:28:30.290Z,10.15
2017-07-24T08:30:57.411Z,9.75
2017-07-24T08:33:24.267Z,10.52
2017-07-24T08:35:51.379Z,9.45
2017-07-24T08:38:18.456Z,8.15
2017-07-24T08:40:45.470Z,6.73
2017-07-24T08:43:12.625Z,7.78
2017-07-24T08:45:39.695Z,7.18
2017-07-24T08:48:06.552Z,7.57
2017-07-24T08:50:35.182Z,7.57
2017-07-24T08:53:02.645Z,8.37
2017-07-24T08:55:29.764Z,9.08
2017-07-24T08:57:57.545Z,9.00
2017-07-24T09:00:25.837Z,9.98
2017-07-24T09:03:00.992Z,8.95
2017-07-24T09:05:29.073Z,9.90
2017-07-24T09:07:57.593Z,7.35
2017-07-24T09:10:31.486Z,8.22
2017-07-24T09:15:35.599Z,8.32
2017-07-24T09:18:05.696Z,9.88
2017-07-24T09:20:37.972Z,8.28
2017-07-24T09:23:05.497Z,8.70
2017-07-24T09:25:34.858Z,8.82
2017-07-24T09:28:03.917Z,8.13
2017-07-24T09:30:32.094Z,6.77
2017-07-24T09:35:45.860Z,7.40
2017-07-24T09:38:21.422Z,6.23
2017-07-24T09:40:55.159Z,6.32
2017-07-24T09:48:59.384Z,7.92
2017-07-24T09:51:33.066Z,8.15
2017-07-24T09:54:20.512Z,8.40
2017-07-24T09:57:01.092Z,6.70
2017-07-24T09:59:29.463Z,7.13
2017-07-24T10:04:30.181Z,6.82
2017-07-24T10:07:00.272Z,7.73
2017-07-24T10:09:28.015Z,6.57
2017-07-24T10:11:55.611Z,7.17
2017-07-24T10:14:25.518Z,7.37
2017-07-24T10:17:14.222Z,6.90
2017-07-24T10:19:45.405Z,7.98
2017-07-24T10:22:14.525Z,7.35
2017-07-24T10:24:53.869Z,8.92
2017-07-24T10:27:23.947Z,9.17
2017-07-24T10:29:50.812Z,7.60
2017-07-24T10:32:22.261Z,7.42
2017-07-24T10:34:52.615Z,8.93
2017-07-24T10:37:22.011Z,6.48
2017-07-24T10:39:55.434Z,6.50
2017-07-24T10:42:26.403Z,6.90
2017-07-24T10:44:55.572Z,6.63
2017-07-24T10:47:24.264Z,7.37
2017-07-24T10:49:53.200Z,8.62
2017-07-24T10:52:24.446Z,7.65
2017-07-24T11:00:03.560Z,8.75
2017-07-24T11:02:32.707Z,8.87
2017-07-24T11:05:00.201Z,9.13
2017-07-24T11:10:04.843Z,10.12
2017-07-24T11:12:32.939Z,9.75
2017-07-24T11:15:03.513Z,7.22
2017-07-24T11:17:32.780Z,4.60
2017-07-24T11:20:00.188Z,5.93
2017-07-24T11:22:28.633Z,5.63
2017-07-24T11:24:56.799Z,5.50
2017-07-24T11:27:25.496Z,5.22
2017-07-24T11:29:57.939Z,6.23
2017-07-24T11:32:25.105Z,6.03
2017-07-24T11:34:52.173Z,6.58
2017-07-24T11:37:19.365Z,6.73
2017-07-24T11:39:46.497Z,7.22
2017-07-24T11:42:13.509Z,6.53
2017-07-24T11:44:40.723Z,6.30
2017-07-24T11:47:08.647Z,5.38
2017-07-24T11:49:35.764Z,5.85
2017-07-24T11:52:02.953Z,6.50
2017-07-24T11:54:29.794Z,5.93
2017-07-24T11:56:57.364Z,6.95
2017-07-24T11:59:24.632Z,7.87
2017-07-24T12:01:52.390Z,7.42
2017-07-24T12:04:19.657Z,7.48
2017-07-24T12:06:46.827Z,6.70
2017-07-24T12:09:13.949Z,7.12
2017-07-24T12:11:42.080Z,6.63
2017-07-24T12:14:09.272Z,6.78
2017-07-24T12:16:36.436Z,6.22
2017-07-24T12:19:06.037Z,6.85
2017-07-24T12:21:34.847Z,5.83
2017-07-24T12:24:02.111Z,6.08
2017-07-24T12:26:29.648Z,5.22
2017-07-24T12:28:56.932Z,6.18
2017-07-24T12:31:24.157Z,5.42
2017-07-24T12:33:54.698Z,5.55
2017-07-24T12:36:21.834Z,6.23
2017-07-24T12:38:48.913Z,5.58
2017-07-24T12:41:16.178Z,5.33
2017-07-24T12:43:43.431Z,5.58
2017-07-24T12:46:10.631Z,4.72
2017-07-24T12:48:41.085Z,6.50
2017-07-24T12:51:08.284Z,4.82
2017-07-24T12:53:35.440Z,6.07
2017-07-24T12:56:02.629Z,6.88
2017-07-24T12:58:29.775Z,5.47
2017-07-24T13:00:58.423Z,5.23
2017-07-24T13:03:25.546Z,4.77
2017-07-24T13:05:52.659Z,5.00
2017-07-24T13:08:19.818Z,5.75
2017-07-24T13:10:46.925Z,4.52
2017-07-24T13:13:14.521Z,6.43
2017-07-24T13:15:41.611Z,5.48
2017-07-24T13:18:08.741Z,5.75
2017-07-24T13:20:35.924Z,4.60
2017-07-24T13:23:02.771Z,4.88
2017-07-24T13:25:31.241Z,6.07
2017-07-24T13:27:58.898Z,6.82
2017-07-24T13:30:25.964Z,5.47
2017-07-24T13:32:53.007Z,5.87
2017-07-24T13:35:20.115Z,6.07
2017-07-24T13:37:46.929Z,4.65
2017-07-24T13:40:14.097Z,4.60
2017-07-24T13:42:41.870Z,5.08
2017-07-24T13:45:09.084Z,4.48
2017-07-24T13:47:36.004Z,4.62
2017-07-24T13:50:03.735Z,5.20
2017-07-24T13:52:31.236Z,4.85
2017-07-24T13:54:59.709Z,6.07
2017-07-24T13:57:26.527Z,5.90
2017-07-24T13:59:53.321Z,5.68
2017-07-24T14:02:23.864Z,5.27
2017-07-24T14:04:50.679Z,5.80
2017-07-24T14:07:17.459Z,5.45
2017-07-24T14:09:44.261Z,8.22
2017-07-24T14:12:11.094Z,6.23
2017-07-24T14:14:37.866Z,6.80
2017-07-24T14:17:04.671Z,6.40
2017-07-24T14:19:33.366Z,5.03
2017-07-24T14:22:00.164Z,5.18
2017-07-24T14:26:59.322Z,4.85
2017-07-24T14:29:26.132Z,5.67
2017-07-24T14:31:52.903Z,5.33
2017-07-24T14:34:20.023Z,5.15
2017-07-24T14:39:17.839Z,4.48
2017-07-24T14:44:17.491Z,4.02
2017-07-24T14:46:44.276Z,3.90
2017-07-24T14:49:11.356Z,3.80
2017-07-24T14:51:38.139Z,3.50
2017-07-24T14:54:04.929Z,3.07
2017-07-24T14:56:33.632Z,3.23
2017-07-24T14:59:00.437Z,3.10
2017-07-24T15:01:27.233Z,2.92
2017-07-24T15:03:54.030Z,2.92
2017-07-24T15:06:20.823Z,3.27
2017-07-24T15:08:47.636Z,3.10
2017-07-24T15:11:14.440Z,3.15
2017-07-24T15:13:41.222Z,4.00
2017-07-24T15:16:11.620Z,3.50
2017-07-24T15:21:09.448Z,4.58
2017-07-24T15:23:36.244Z,4.12
2017-07-24T15:26:05.529Z,4.73
2017-07-24T15:31:03.336Z,3.80
2017-07-24T15:36:02.845Z,4.68
2017-07-24T15:38:32.234Z,4.47
2017-07-24T15:41:00.691Z,4.45
2017-07-24T15:46:01.075Z,4.02
2017-07-24T15:51:01.277Z,4.58
2017-07-24T15:53:30.455Z,4.63
2017-07-24T15:58:32.012Z,5.05
2017-07-24T16:06:03.012Z,5.10
2017-07-24T16:11:04.445Z,4.52
2017-07-24T16:13:33.164Z,4.88
2017-07-24T16:18:34.484Z,4.90
2017-07-24T16:48:53.300Z,5.10
2017-07-24T17:25:01.277Z,4.05
2017-07-24T17:27:31.080Z,4.42
2017-07-24T17:32:31.911Z,4.62
2017-07-24T17:35:12.740Z,4.72
2017-07-24T17:48:29.797Z,7.43
2017-07-24T17:50:57.417Z,6.62
2017-07-24T18:22:09.102Z,7.85
2017-07-24T18:50:58.990Z,7.78
2017-07-24T18:56:16.018Z,7.93
2017-07-24T19:23:05.367Z,6.98
2017-07-24T20:13:36.014Z,10.58
2017-07-24T20:16:22.632Z,10.78
2017-07-24T20:21:30.495Z,11.63
2017-07-24T20:47:21.873Z,14.77
2017-07-24T20:54:58.889Z,15.97
2017-07-24T20:57:31.941Z,15.22
2017-07-24T21:05:15.826Z,16.73
2017-07-24T21:10:40.417Z,14.60
2017-07-24T21:34:24.472Z,17.68
2017-07-24T21:55:04.256Z,21.12
2017-07-24T22:00:08.786Z,20.53
2017-07-24T22:02:43.984Z,20.78
2017-07-24T22:05:15.267Z,21.55
2017-07-24T22:39:17.325Z,23.30
2017-07-24T22:49:43.725Z,24.50
2017-07-24T23:03:03.612Z,27.08
2017-07-24T23:29:09.464Z,25.63
2017-07-24T23:36:51.417Z,25.42
2017-07-24T23:49:36.517Z,28.92
2017-07-24T23:54:44.369Z,28.83
